Terminal Aerodrome Forecast
Issued by NWS

Home | Current Version | Previous Version | Text Only | Print | Product List | Glossary On
Versions: 1 2 3 4 5 6 7 8 9 10 11 12 13 14 15 16 17 18 19 20 21 22 23 24 25 26 27 28 29 30 31 32 33 34 35 36
000
FTUS44 KSJT 290520
TAFJCT
TAF
KJCT 290520Z 2906/3006 12008KT 5SM HZ OVC018
      TEMPO 2909/2913 4SM BR OVC008
     FM291400 16007KT P6SM VCTS BKN015CB
     FM291700 21007KT P6SM VCTS BKN028CB
     FM291900 26007KT P6SM SCT250=

USA.gov is the U.S. government's official web portal to all federal, state and local government web resources and services.